Weather

Weather Information Services

Current METAR and TAF for Sabadell Airport (LELL).

LELL 241130Z 13009KT 080V160 CAVOK 15/01 Q1014

TAF LELL 240800Z 2409/2509 VRB04KT 9999 FEW030 TX17/2413Z TN06/2506Z TEMPO 2412/2418 14010KT

Current METAR and TAF for Gerona Airport (LEGE).

LEGE 241130Z 25003KT CAVOK 15/M02 Q1014

TAF LEGE 241100Z 2412/2512 18010KT 9999 FEW030 TX19/2413Z TN07/2506Z BECMG 2419/2421 VRB04KT BECMG 2510/2512 18010KT

Current METAR and TAF for Reus Airport (LERS).

LERS 241130Z 26016KT 220V280 CAVOK 19/M02 Q1015

TAF LERS 240800Z 2409/2509 VRB05KT 9999 FEW030 TX23/2413Z TN07/2506Z TEMPO 2409/2416 28013KT TEMPO 2416/2421 22014KT

Current METAR and TAF for Lleida Airport (LEDA).

LEDA 241130Z 25011KT 220V290 CAVOK 15/M02 Q1016

TAF LEDA 240800Z 2409/2509 26009KT 9999 FEW040 TX21/2414Z TN06/2506Z TEMPO 2416/2420 27015G25KT

Other amazing weather tools for weather forecast

Ventusky Wind and Temperature Maps

https://www.estofex.org/

Here you have some local Meteo Websites you can check, when flying in Catalunya:

RAW and Decoded METARS
https://e6bx.com/weather/LELL/?showDecoded=1&focuspoint=pressurealt